Time;durP1;ratioP1;P1;durP2;ratioP2;P2;SDS_P1;SDS_P2;PMS_P1;PMS_P2;Temp;Humidity;BMP_temperature;BMP_pressure;BME280_temperature;BME280_humidity;BME280_pressure;Samples;Min_cycle;Max_cycle;Signal;HPM_P1;HPM_P2
2022/03/18 10:11:16;;;;;;;37.10;33.27;;;12.90;99.90;;;;;;5106428;27;20564;-72
2022/03/18 10:13:54;;;;;;;35.90;32.30;;;13.60;99.90;;;;;;5106741;28;20441;-72
2022/03/18 10:16:35;;;;;;;36.17;32.57;;;13.70;99.90;;;;;;5106594;28;20939;-73
2022/03/18 10:19:03;;;;;;;34.80;31.20;;;13.90;99.90;;;;;;5106492;28;20434;-71
2022/03/18 10:21:30;;;;;;;33.97;31.07;;;15.00;99.90;;;;;;5106228;28;20445;-72
2022/03/18 10:24:08;;;;;;;33.40;30.47;;;15.40;99.00;;;;;;5106442;28;20450;-73
2022/03/18 10:26:38;;;;;;;34.87;31.63;;;15.30;98.50;;;;;;5106338;28;20446;-74
2022/03/18 10:29:11;;;;;;;37.10;33.37;;;15.00;98.90;;;;;;5106241;28;20485;-72
2022/03/18 10:31:39;;;;;;;35.93;32.07;;;14.80;99.50;;;;;;5106162;28;20449;-72
2022/03/18 10:37:08;;;;;;;36.53;32.40;;;15.40;98.20;;;;;;5106386;28;20525;-74
2022/03/18 10:39:38;;;;;;;35.30;31.47;;;15.90;96.70;;;;;;5106364;28;20480;-74
2022/03/18 10:42:10;;;;;;;35.20;31.87;;;15.60;96.30;;;;;;5106243;28;20994;-73
2022/03/18 10:44:46;;;;;;;34.57;31.50;;;15.50;96.90;;;;;;5106237;28;20532;-73
2022/03/18 10:47:31;;;;;;;37.37;33.97;;;15.80;95.90;;;;;;5105896;28;20449;-74
2022/03/18 10:50:15;;;;;;;37.80;33.70;;;15.20;96.80;;;;;;5106126;28;20489;-74
2022/03/18 10:52:57;;;;;;;34.97;31.60;;;14.80;97.80;;;;;;5106086;28;20509;-74
2022/03/18 10:55:26;;;;;;;35.33;31.73;;;14.80;98.20;;;;;;5106018;28;20437;-74
2022/03/18 10:57:56;;;;;;;38.63;34.67;;;14.60;97.80;;;;;;5105958;28;20450;-74
2022/03/18 11:00:25;;;;;;;34.20;31.03;;;14.20;98.20;;;;;;5105776;28;20445;-74
2022/03/18 11:02:58;;;;;;;35.83;32.53;;;14.90;97.90;;;;;;5105794;28;20484;-73
2022/03/18 11:05:25;;;;;;;35.57;31.90;;;15.10;96.60;;;;;;5105884;28;20548;-73
2022/03/18 11:07:55;;;;;;;35.20;31.67;;;15.50;96.50;;;;;;5105725;28;20449;-74
2022/03/18 11:13:11;;;;;;;37.63;34.00;;;16.40;94.80;;;;;;5092308;28;20490;-73
2022/03/18 11:15:39;;;;;;;38.07;34.67;;;16.40;94.50;;;;;;5092027;28;20446;-75
2022/03/18 11:18:07;;;;;;;37.63;34.23;;;16.10;95.10;;;;;;5091868;28;20545;-74
2022/03/18 11:20:42;;;;;;;38.63;35.00;;;15.70;95.20;;;;;;5092021;28;20451;-73
2022/03/18 11:23:17;;;;;;;36.30;32.37;;;15.40;96.60;;;;;;5092002;28;20445;-74
2022/03/18 11:25:45;;;;;;;37.77;34.10;;;14.90;97.30;;;;;;5091904;28;20482;-73
2022/03/18 11:28:16;;;;;;;37.63;34.03;;;14.70;98.40;;;;;;5091856;28;20442;-74
2022/03/18 11:30:43;;;;;;;36.03;32.70;;;14.90;98.90;;;;;;5091793;28;20582;-74
2022/03/18 11:33:20;;;;;;;37.67;33.93;;;15.30;97.80;;;;;;5091690;28;20438;-72
2022/03/18 11:36:24;;;;;;;37.80;34.40;;;14.90;97.80;;;;;;5091750;28;20457;-73
2022/03/18 11:39:03;;;;;;;37.73;34.03;;;14.80;98.80;;;;;;5091777;28;20454;-73
2022/03/18 11:41:53;;;;;;;37.10;33.50;;;14.20;98.60;;;;;;5091784;28;20446;-72
2022/03/18 11:44:43;;;;;;;37.90;34.23;;;13.90;99.90;;;;;;5091779;28;20457;-73
2022/03/18 11:47:38;;;;;;;37.30;33.57;;;14.20;99.50;;;;;;5086497;28;20514;-73
2022/03/18 11:50:49;;;;;;;37.13;33.60;;;14.20;99.70;;;;;;5091633;28;20493;-74
2022/03/18 11:53:46;;;;;;;38.13;34.53;;;14.60;99.00;;;;;;5091640;28;20474;-73
2022/03/18 11:56:13;;;;;;;35.00;31.80;;;14.90;98.80;;;;;;5091583;28;20562;-74
2022/03/18 11:58:40;;;;;;;36.90;33.40;;;14.90;98.00;;;;;;5091551;28;20446;-74
2022/03/18 12:01:41;;;;;;;36.60;33.33;;;14.50;98.50;;;;;;5091254;28;20512;-74
2022/03/18 12:04:09;;;;;;;36.70;33.00;;;14.70;98.80;;;;;;5091567;28;20449;-74
2022/03/18 12:07:09;;;;;;;38.87;35.37;;;15.00;98.10;;;;;;5091322;28;20457;-73
2022/03/18 12:09:52;;;;;;;38.67;34.87;;;14.50;98.20;;;;;;5091019;27;20584;-72
2022/03/18 12:12:21;;;;;;;35.60;32.40;;;14.20;99.00;;;;;;5091381;28;20502;-74
2022/03/18 12:14:48;;;;;;;38.20;34.40;;;14.20;98.90;;;;;;5091226;28;20462;-73
2022/03/18 12:17:16;;;;;;;36.00;32.50;;;14.50;98.90;;;;;;5091070;28;20499;-72
2022/03/18 12:19:49;;;;;;;37.77;34.00;;;14.20;99.10;;;;;;5091003;28;20952;-73
2022/03/18 12:22:18;;;;;;;36.77;33.17;;;14.30;99.10;;;;;;5090114;28;20937;-74
2022/03/18 12:24:45;;;;;;;39.33;35.10;;;14.50;99.40;;;;;;5090949;28;20450;-73
2022/03/18 12:27:11;;;;;;;37.80;34.10;;;15.00;99.00;;;;;;5091079;28;20457;-74
2022/03/18 12:29:38;;;;;;;37.30;34.00;;;15.40;97.50;;;;;;5090924;28;20478;-74
2022/03/18 12:32:06;;;;;;;41.80;37.60;;;15.50;97.30;;;;;;5090904;28;20494;-74
2022/03/18 12:34:35;;;;;;;36.80;33.40;;;15.20;97.30;;;;;;5090917;28;20451;-74
2022/03/18 12:37:03;;;;;;;43.00;38.70;;;14.90;97.60;;;;;;5090734;28;20561;-73
2022/03/18 12:39:30;;;;;;;39.90;36.20;;;14.40;98.20;;;;;;5090855;28;20446;-73
2022/03/18 12:42:09;;;;;;;37.43;34.00;;;14.20;99.20;;;;;;5090743;28;20933;-74
2022/03/18 12:44:35;;;;;;;37.80;34.27;;;14.70;97.10;;;;;;5090716;28;20454;-73
2022/03/18 12:47:05;;;;;;;37.23;33.83;;;14.70;96.20;;;;;;5090580;28;20867;-74
2022/03/18 12:49:32;;;;;;;35.70;32.40;;;15.00;95.90;;;;;;5090748;28;20999;-74
2022/03/18 12:52:01;;;;;;;36.90;33.50;;;15.10;95.00;;;;;;5090723;28;20486;-74
2022/03/18 12:54:28;;;;;;;37.50;34.13;;;15.00;95.80;;;;;;5090532;28;20454;-74
2022/03/18 12:56:55;;;;;;;38.27;34.83;;;14.90;97.00;;;;;;5090570;28;20457;-74
2022/03/18 12:59:22;;;;;;;38.80;35.40;;;15.00;96.50;;;;;;5090547;28;20936;-74
2022/03/18 13:01:53;;;;;;;37.53;34.27;;;14.80;96.80;;;;;;5090463;28;20471;-74
2022/03/18 13:04:21;;;;;;;36.23;32.73;;;15.10;96.10;;;;;;5090454;28;20458;-74
2022/03/18 13:06:52;;;;;;;35.97;32.67;;;15.10;96.30;;;;;;5090540;28;20450;-74
2022/03/18 13:09:20;;;;;;;37.57;33.93;;;14.60;96.50;;;;;;5090281;28;20485;-74
2022/03/18 13:11:47;;;;;;;33.67;30.70;;;14.30;97.30;;;;;;5090329;28;20455;-74
2022/03/18 13:14:14;;;;;;;37.10;33.10;;;14.70;96.80;;;;;;5090256;28;20944;-74
2022/03/18 13:16:42;;;;;;;37.97;34.23;;;14.80;96.00;;;;;;5090139;28;20462;-74
2022/03/18 13:19:09;;;;;;;38.90;35.30;;;14.70;96.50;;;;;;5090351;28;20447;-73
2022/03/18 13:21:41;;;;;;;34.90;31.70;;;14.90;96.50;;;;;;5090110;28;20816;-73
2022/03/18 13:24:08;;;;;;;36.37;32.60;;;15.20;95.70;;;;;;5090163;28;20458;-73
2022/03/18 13:26:36;;;;;;;37.17;33.67;;;15.30;95.40;;;;;;5090019;28;20484;-73
2022/03/18 13:29:04;;;;;;;36.47;33.17;;;15.20;95.40;;;;;;5089938;28;20462;-73
2022/03/18 13:34:30;;;;;;;35.27;31.90;;;14.90;95.70;;;;;;5089500;28;20799;-73
2022/03/18 13:37:12;;;;;;;35.60;32.37;;;14.70;96.20;;;;;;5089958;28;20482;-73
2022/03/18 13:39:38;;;;;;;34.40;31.20;;;14.70;96.20;;;;;;5089906;28;20534;-75
2022/03/18 13:42:07;;;;;;;33.80;30.67;;;15.00;95.80;;;;;;5089939;28;21039;-73
2022/03/18 13:44:48;;;;;;;33.20;30.10;;;15.50;94.20;;;;;;5089768;28;20450;-72
2022/03/18 13:47:15;;;;;;;36.87;33.17;;;15.50;93.90;;;;;;5089789;28;20449;-73
2022/03/18 13:49:54;;;;;;;34.03;30.80;;;15.40;94.20;;;;;;5089733;28;20446;-73
2022/03/18 13:52:32;;;;;;;31.57;28.80;;;15.60;93.70;;;;;;5089796;28;20532;-73
2022/03/18 13:54:59;;;;;;;31.27;28.47;;;15.10;92.80;;;;;;5089785;28;20482;-73
2022/03/18 13:57:27;;;;;;;30.77;27.90;;;14.60;92.90;;;;;;5089565;28;20790;-74
2022/03/18 13:59:57;;;;;;;30.83;28.10;;;14.60;93.90;;;;;;5089503;28;20474;-73
2022/03/18 14:02:28;;;;;;;31.47;28.60;;;14.80;93.30;;;;;;5089297;28;20549;-74
2022/03/18 14:04:56;;;;;;;30.70;27.90;;;15.10;93.20;;;;;;5089378;28;21052;-74
2022/03/18 14:07:39;;;;;;;30.33;27.67;;;15.30;92.00;;;;;;5089265;28;20928;-73
2022/03/18 14:10:07;;;;;;;32.80;29.80;;;15.00;91.70;;;;;;5088826;28;20490;-73
2022/03/18 14:12:35;;;;;;;33.67;29.83;;;14.70;93.40;;;;;;5089249;28;20454;-73
2022/03/18 14:15:15;;;;;;;33.30;30.37;;;14.80;93.80;;;;;;5089215;28;21017;-74
2022/03/18 14:17:58;;;;;;;31.47;28.67;;;14.70;94.50;;;;;;5089370;28;20841;-74
2022/03/18 14:20:28;;;;;;;31.13;28.37;;;14.40;94.10;;;;;;5089242;28;20446;-73
2022/03/18 14:22:55;;;;;;;32.77;29.90;;;14.20;94.10;;;;;;5089093;28;20449;-74
2022/03/18 14:25:23;;;;;;;29.30;26.67;;;14.00;94.90;;;;;;5089117;28;20510;-74
2022/03/18 14:27:52;;;;;;;32.03;29.20;;;14.00;94.80;;;;;;5089154;28;20537;-74
2022/03/18 14:30:21;;;;;;;31.03;28.43;;;13.90;94.70;;;;;;5088958;28;20526;-73
2022/03/18 14:32:49;;;;;;;33.00;30.00;;;14.00;95.20;;;;;;5088956;28;20442;-73
2022/03/18 14:35:16;;;;;;;32.17;29.40;;;14.30;95.30;;;;;;5089019;28;20446;-74
2022/03/18 14:37:43;;;;;;;31.30;28.60;;;14.10;95.30;;;;;;5088960;28;20530;-73
2022/03/18 14:40:12;;;;;;;32.90;29.90;;;14.00;95.20;;;;;;5089315;28;20454;-73
2022/03/18 14:42:39;;;;;;;30.70;28.00;;;14.10;95.40;;;;;;5089028;28;20457;-73
2022/03/18 14:45:08;;;;;;;35.07;29.50;;;14.10;95.90;;;;;;5088989;28;20482;-73
2022/03/18 14:47:35;;;;;;;31.20;28.60;;;14.20;96.20;;;;;;5092147;27;20529;-72
2022/03/18 14:50:02;;;;;;;30.30;27.33;;;14.30;95.90;;;;;;5092372;28;20862;-72
2022/03/18 14:52:28;;;;;;;32.97;30.07;;;14.60;95.80;;;;;;5092138;28;20454;-72
2022/03/18 14:57:39;;;;;;;32.80;29.80;;;14.20;96.20;;;;;;5092242;28;20474;-72
2022/03/18 15:00:09;;;;;;;32.87;29.87;;;14.00;96.90;;;;;;5092172;28;20514;-73
2022/03/18 15:02:36;;;;;;;35.17;31.87;;;14.00;96.90;;;;;;5091929;28;20474;-74
2022/03/18 15:05:03;;;;;;;32.77;29.70;;;13.90;97.20;;;;;;5092172;28;20462;-74
2022/03/18 15:07:31;;;;;;;33.77;30.37;;;13.70;97.50;;;;;;5092193;28;20446;-73
2022/03/18 15:09:58;;;;;;;32.57;29.50;;;13.60;97.50;;;;;;5092001;28;20992;-74
2022/03/18 15:12:25;;;;;;;33.70;30.60;;;13.70;97.40;;;;;;5092175;28;20450;-73
2022/03/18 15:14:52;;;;;;;30.23;27.40;;;13.80;97.50;;;;;;5091805;28;20473;-72
2022/03/18 15:17:20;;;;;;;30.43;27.90;;;13.80;97.00;;;;;;5091662;28;20446;-72
2022/03/18 15:19:47;;;;;;;32.33;29.37;;;13.80;96.40;;;;;;5091920;28;20456;-72
2022/03/18 15:22:14;;;;;;;34.17;31.23;;;13.60;96.50;;;;;;5091902;28;20451;-72
2022/03/18 15:24:41;;;;;;;36.30;29.43;;;13.20;97.10;;;;;;5092164;28;20549;-73
2022/03/18 15:27:08;;;;;;;35.40;32.00;;;13.20;97.60;;;;;;5091941;28;20450;-73
2022/03/18 15:29:35;;;;;;;33.03;30.13;;;13.20;97.70;;;;;;5091912;28;20809;-73
2022/03/18 15:32:03;;;;;;;32.37;29.50;;;13.40;97.70;;;;;;5091985;28;20486;-72
2022/03/18 15:34:33;;;;;;;32.27;29.37;;;13.30;97.20;;;;;;5091676;28;20525;-72
2022/03/18 15:36:59;;;;;;;33.87;30.60;;;13.30;97.00;;;;;;5091693;28;20941;-72
2022/03/18 15:39:27;;;;;;;33.40;30.30;;;13.40;97.10;;;;;;5091765;28;20454;-72
2022/03/18 15:41:57;;;;;;;31.80;28.90;;;13.30;97.00;;;;;;5091775;28;21033;-72
2022/03/18 15:44:25;;;;;;;31.87;28.83;;;13.20;97.50;;;;;;5091827;28;20458;-72
2022/03/18 15:46:52;;;;;;;33.27;30.17;;;13.20;97.70;;;;;;5091516;28;20474;-74
2022/03/18 15:49:19;;;;;;;33.63;30.50;;;13.10;97.60;;;;;;5091723;28;20884;-72
2022/03/18 15:51:47;;;;;;;32.40;29.50;;;13.00;97.60;;;;;;5091477;28;20534;-72
2022/03/18 15:54:14;;;;;;;31.27;28.50;;;13.10;97.50;;;;;;5091354;28;20458;-72
2022/03/18 15:56:41;;;;;;;33.17;30.00;;;12.90;97.20;;;;;;5091374;28;20862;-72
2022/03/18 15:59:09;;;;;;;32.57;29.77;;;12.80;97.20;;;;;;5091330;28;20453;-73
2022/03/18 16:01:36;;;;;;;34.33;30.80;;;12.80;97.50;;;;;;5091157;28;20557;-73
2022/03/18 16:04:03;;;;;;;34.50;31.20;;;12.80;97.60;;;;;;5091394;28;20811;-72
2022/03/18 16:06:30;;;;;;;30.40;27.77;;;12.80;97.80;;;;;;5091090;28;20483;-73
2022/03/18 16:08:59;;;;;;;31.47;28.47;;;12.80;97.60;;;;;;5091107;28;20446;-72
2022/03/18 16:11:25;;;;;;;33.63;30.70;;;12.80;97.70;;;;;;5091106;28;20586;-72
2022/03/18 16:13:52;;;;;;;32.37;29.37;;;12.70;97.70;;;;;;5091002;28;20503;-72
2022/03/18 16:16:20;;;;;;;34.53;30.50;;;12.60;98.00;;;;;;5091003;28;20502;-73
2022/03/18 16:18:47;;;;;;;32.67;29.53;;;12.70;98.20;;;;;;5090843;28;20518;-72
2022/03/18 16:21:15;;;;;;;33.53;30.33;;;12.70;98.10;;;;;;5090904;28;20507;-71
2022/03/18 16:23:43;;;;;;;32.87;29.80;;;12.60;98.20;;;;;;5091057;28;20545;-73
2022/03/18 16:26:11;;;;;;;32.83;29.73;;;12.50;98.60;;;;;;5090857;28;20457;-73
2022/03/18 16:28:37;;;;;;;34.17;31.07;;;12.50;98.70;;;;;;5090833;28;20458;-73
2022/03/18 16:31:04;;;;;;;32.87;29.73;;;12.50;98.70;;;;;;5090848;28;20491;-71
2022/03/18 16:33:33;;;;;;;32.77;29.77;;;12.40;98.70;;;;;;5091097;28;20859;-74
2022/03/18 16:36:00;;;;;;;34.50;31.00;;;12.40;99.10;;;;;;5090869;28;20522;-74
2022/03/18 16:38:27;;;;;;;32.87;29.90;;;12.30;99.50;;;;;;5090820;28;20506;-73
2022/03/18 16:40:54;;;;;;;34.20;30.90;;;12.20;99.80;;;;;;5090769;28;20443;-73
2022/03/18 16:43:24;;;;;;;30.93;28.03;;;12.20;99.90;;;;;;5090722;28;20449;-73
2022/03/18 16:51:20;;;;;;;33.30;30.30;;;12.00;99.90;;;;;;5090662;28;20477;-72
2022/03/18 16:53:47;;;;;;;33.67;30.13;;;12.00;99.90;;;;;;5090536;28;20550;-72
2022/03/18 16:56:13;;;;;;;32.33;29.17;;;11.90;99.90;;;;;;5090520;28;20457;-72
2022/03/18 16:58:44;;;;;;;32.37;29.30;;;11.80;99.90;;;;;;5090525;28;20458;-73
2022/03/18 17:01:10;;;;;;;36.60;32.70;;;11.80;99.90;;;;;;5090292;28;20470;-73
2022/03/18 17:03:37;;;;;;;34.47;31.07;;;11.80;99.90;;;;;;5090415;28;20457;-73
2022/03/18 17:06:04;;;;;;;36.23;32.77;;;11.70;99.90;;;;;;5090323;28;20501;-73
2022/03/18 17:08:31;;;;;;;34.30;30.80;;;11.70;99.90;;;;;;5089665;28;20438;-72
2022/03/18 17:10:57;;;;;;;34.67;31.23;;;11.60;99.90;;;;;;5090037;28;20509;-72
2022/03/18 17:13:24;;;;;;;34.47;30.93;;;11.50;99.90;;;;;;5090255;28;20921;-71
2022/03/18 17:15:52;;;;;;;36.07;32.27;;;11.50;99.90;;;;;;5090137;28;20450;-72
2022/03/18 17:18:19;;;;;;;34.93;31.53;;;11.50;99.90;;;;;;5090363;28;20447;-72
2022/03/18 17:20:46;;;;;;;35.60;32.10;;;11.40;99.90;;;;;;5090273;28;20481;-72
2022/03/18 17:23:13;;;;;;;35.00;31.37;;;11.40;99.90;;;;;;5090131;28;20506;-72
2022/03/18 17:25:40;;;;;;;38.70;34.53;;;11.30;99.90;;;;;;5090079;28;20975;-73
2022/03/18 17:28:07;;;;;;;35.00;31.90;;;11.30;99.90;;;;;;5089848;28;20490;-72
2022/03/18 17:30:34;;;;;;;36.40;32.63;;;11.30;99.90;;;;;;5089948;28;20826;-72
2022/03/18 17:33:02;;;;;;;36.97;33.20;;;11.20;99.90;;;;;;5089835;28;20495;-73
2022/03/18 17:35:29;;;;;;;36.60;33.07;;;11.20;99.90;;;;;;5089858;28;20487;-72
2022/03/18 17:37:57;;;;;;;35.93;32.53;;;11.20;99.90;;;;;;5089703;28;20447;-73
2022/03/18 17:40:25;;;;;;;37.67;33.67;;;11.10;99.90;;;;;;5089896;28;20873;-72
2022/03/18 17:42:53;;;;;;;37.10;33.60;;;11.00;99.90;;;;;;5089808;28;20450;-74
2022/03/18 17:45:21;;;;;;;36.47;32.80;;;11.10;99.90;;;;;;5089788;28;20977;-71
2022/03/18 17:47:48;;;;;;;35.47;31.87;;;11.10;99.90;;;;;;5089609;28;21047;-71
2022/03/18 17:50:16;;;;;;;36.13;32.70;;;11.00;99.90;;;;;;5089862;28;20460;-71
2022/03/18 17:52:43;;;;;;;36.30;32.47;;;11.00;99.90;;;;;;5089506;28;20576;-73
2022/03/18 17:55:10;;;;;;;39.67;35.73;;;10.90;99.90;;;;;;5089454;28;20446;-73
2022/03/18 17:57:37;;;;;;;37.70;33.90;;;10.80;99.90;;;;;;5089565;28;20442;-73
